South Indian Lake, Canada
Current Conditions -  °F | °C
As of 2:00 PM on Monday 26 Jan 2015 (Local Time) from CYTH Reporting Station
Light Snow Light Snow  
Wind Chill:   Ceiling: 6300
Heat Index:   Visibility: 6mi
Dew Point:   Wind: 5mph
Humidity: 85%   Direction: 210°SSW
Pressure: 29.81"   Gusts: NA
Location:  56.78°N, 98.93°W
Report Text: CYTH 262000Z 21004KT 6SM -SN FEW012 OVC063 M13/M15 A2981 RMK SC2SC6 SLP117
Loading
Personal Weather Stations






























Interactive Weather Map New forecast layout! Learn more

10-Day Weather Forecast

Advertisements
Track Severe Weather on mobile